sensor_id;sensor_type;location;lat;lon;timestamp;P1;durP1;ratioP1;P2;durP2;ratioP2
59167;SDS011;44948;55.046;73.266;2022-07-18T00:00:48;8.95;;;6.38;;
59167;SDS011;44948;55.046;73.266;2022-07-18T00:02:31;8.77;;;6.65;;
59167;SDS011;44948;55.046;73.266;2022-07-18T00:04:13;7.47;;;6.28;;
59167;SDS011;44948;55.046;73.266;2022-07-18T00:05:55;8.00;;;6.40;;
59167;SDS011;44948;55.046;73.266;2022-07-18T00:07:40;9.40;;;6.27;;
59167;SDS011;44948;55.046;73.266;2022-07-18T00:09:23;8.70;;;6.40;;
59167;SDS011;44948;55.046;73.266;2022-07-18T00:12:48;7.82;;;6.95;;
59167;SDS011;44948;55.046;73.266;2022-07-18T00:14:31;10.35;;;6.93;;
59167;SDS011;44948;55.046;73.266;2022-07-18T00:17:55;8.82;;;6.22;;
59167;SDS011;44948;55.046;73.266;2022-07-18T00:19:38;7.30;;;6.35;;
59167;SDS011;44948;55.046;73.266;2022-07-18T00:21:21;8.35;;;6.55;;
59167;SDS011;44948;55.046;73.266;2022-07-18T00:23:03;9.68;;;6.35;;
59167;SDS011;44948;55.046;73.266;2022-07-18T00:24:46;7.30;;;6.38;;
59167;SDS011;44948;55.046;73.266;2022-07-18T00:26:28;7.40;;;6.50;;
59167;SDS011;44948;55.046;73.266;2022-07-18T00:28:10;7.97;;;6.88;;
59167;SDS011;44948;55.046;73.266;2022-07-18T00:29:53;8.88;;;6.80;;
59167;SDS011;44948;55.046;73.266;2022-07-18T00:31:35;9.60;;;6.78;;
59167;SDS011;44948;55.046;73.266;2022-07-18T00:33:18;8.95;;;6.65;;
59167;SDS011;44948;55.046;73.266;2022-07-18T00:35:00;12.00;;;6.95;;
59167;SDS011;44948;55.046;73.266;2022-07-18T00:36:42;8.98;;;6.47;;
59167;SDS011;44948;55.046;73.266;2022-07-18T00:38:25;9.93;;;7.32;;
59167;SDS011;44948;55.046;73.266;2022-07-18T00:40:08;7.57;;;6.78;;
59167;SDS011;44948;55.046;73.266;2022-07-18T00:41:51;8.85;;;6.60;;
59167;SDS011;44948;55.046;73.266;2022-07-18T00:43:33;7.63;;;6.80;;
59167;SDS011;44948;55.046;73.266;2022-07-18T00:45:16;7.85;;;7.05;;
59167;SDS011;44948;55.046;73.266;2022-07-18T00:46:59;8.27;;;7.22;;
59167;SDS011;44948;55.046;73.266;2022-07-18T00:48:43;8.52;;;7.38;;
59167;SDS011;44948;55.046;73.266;2022-07-18T00:50:25;7.85;;;7.05;;
59167;SDS011;44948;55.046;73.266;2022-07-18T00:52:07;12.57;;;6.97;;
59167;SDS011;44948;55.046;73.266;2022-07-18T00:53:50;8.87;;;6.70;;
59167;SDS011;44948;55.046;73.266;2022-07-18T00:55:33;11.10;;;7.20;;
59167;SDS011;44948;55.046;73.266;2022-07-18T00:57:16;11.95;;;6.43;;
59167;SDS011;44948;55.046;73.266;2022-07-18T00:58:59;8.18;;;6.72;;
59167;SDS011;44948;55.046;73.266;2022-07-18T01:00:42;9.30;;;6.88;;
59167;SDS011;44948;55.046;73.266;2022-07-18T01:02:43;8.63;;;7.07;;
59167;SDS011;44948;55.046;73.266;2022-07-18T01:04:25;8.87;;;6.57;;
59167;SDS011;44948;55.046;73.266;2022-07-18T01:06:07;9.73;;;7.30;;
59167;SDS011;44948;55.046;73.266;2022-07-18T01:07:50;8.70;;;7.13;;
59167;SDS011;44948;55.046;73.266;2022-07-18T01:11:14;11.32;;;7.10;;
59167;SDS011;44948;55.046;73.266;2022-07-18T01:13:16;8.85;;;7.22;;
59167;SDS011;44948;55.046;73.266;2022-07-18T01:14:59;8.20;;;6.15;;
59167;SDS011;44948;55.046;73.266;2022-07-18T01:16:43;13.80;;;7.45;;
59167;SDS011;44948;55.046;73.266;2022-07-18T01:18:26;8.85;;;6.97;;
59167;SDS011;44948;55.046;73.266;2022-07-18T01:20:09;7.53;;;6.15;;
59167;SDS011;44948;55.046;73.266;2022-07-18T01:21:52;12.27;;;7.90;;
59167;SDS011;44948;55.046;73.266;2022-07-18T01:23:34;10.18;;;7.18;;
59167;SDS011;44948;55.046;73.266;2022-07-18T01:25:16;8.10;;;6.15;;
59167;SDS011;44948;55.046;73.266;2022-07-18T01:26:59;8.35;;;6.35;;
59167;SDS011;44948;55.046;73.266;2022-07-18T01:28:45;7.68;;;6.40;;
59167;SDS011;44948;55.046;73.266;2022-07-18T01:30:28;9.20;;;6.95;;
59167;SDS011;44948;55.046;73.266;2022-07-18T01:32:11;9.30;;;7.25;;
59167;SDS011;44948;55.046;73.266;2022-07-18T01:33:54;10.02;;;5.93;;
59167;SDS011;44948;55.046;73.266;2022-07-18T01:35:37;13.77;;;6.53;;
59167;SDS011;44948;55.046;73.266;2022-07-18T01:37:19;13.00;;;6.55;;
59167;SDS011;44948;55.046;73.266;2022-07-18T01:39:02;8.35;;;6.63;;
59167;SDS011;44948;55.046;73.266;2022-07-18T01:40:44;7.70;;;6.60;;
59167;SDS011;44948;55.046;73.266;2022-07-18T01:42:27;15.48;;;6.47;;
59167;SDS011;44948;55.046;73.266;2022-07-18T01:44:10;10.77;;;6.65;;
59167;SDS011;44948;55.046;73.266;2022-07-18T01:45:55;14.73;;;7.28;;
59167;SDS011;44948;55.046;73.266;2022-07-18T01:47:37;11.57;;;6.20;;
59167;SDS011;44948;55.046;73.266;2022-07-18T01:49:21;9.95;;;5.80;;
59167;SDS011;44948;55.046;73.266;2022-07-18T01:51:04;14.15;;;6.78;;
59167;SDS011;44948;55.046;73.266;2022-07-18T01:52:51;10.63;;;6.38;;
59167;SDS011;44948;55.046;73.266;2022-07-18T01:54:34;10.90;;;6.28;;
59167;SDS011;44948;55.046;73.266;2022-07-18T01:56:18;8.70;;;6.00;;
59167;SDS011;44948;55.046;73.266;2022-07-18T01:58:00;9.27;;;5.70;;
59167;SDS011;44948;55.046;73.266;2022-07-18T01:59:43;8.38;;;6.03;;
59167;SDS011;44948;55.046;73.266;2022-07-18T02:01:25;6.95;;;5.28;;
59167;SDS011;44948;55.046;73.266;2022-07-18T02:03:08;7.40;;;5.57;;
59167;SDS011;44948;55.046;73.266;2022-07-18T02:04:50;7.60;;;5.60;;
59167;SDS011;44948;55.046;73.266;2022-07-18T02:06:41;10.95;;;6.03;;
59167;SDS011;44948;55.046;73.266;2022-07-18T02:08:24;9.10;;;5.53;;
59167;SDS011;44948;55.046;73.266;2022-07-18T02:10:10;7.53;;;5.20;;
59167;SDS011;44948;55.046;73.266;2022-07-18T02:11:54;6.72;;;4.90;;
59167;SDS011;44948;55.046;73.266;2022-07-18T02:13:37;6.90;;;4.30;;
59167;SDS011;44948;55.046;73.266;2022-07-18T02:15:19;7.40;;;4.28;;
59167;SDS011;44948;55.046;73.266;2022-07-18T02:17:02;6.70;;;4.70;;
59167;SDS011;44948;55.046;73.266;2022-07-18T02:18:44;9.98;;;4.35;;
59167;SDS011;44948;55.046;73.266;2022-07-18T02:20:27;8.18;;;4.85;;
59167;SDS011;44948;55.046;73.266;2022-07-18T02:22:09;8.43;;;4.70;;
59167;SDS011;44948;55.046;73.266;2022-07-18T02:23:52;7.38;;;3.53;;
59167;SDS011;44948;55.046;73.266;2022-07-18T02:25:35;5.93;;;3.63;;
59167;SDS011;44948;55.046;73.266;2022-07-18T02:27:18;5.57;;;4.60;;
59167;SDS011;44948;55.046;73.266;2022-07-18T02:30:43;8.18;;;4.28;;
59167;SDS011;44948;55.046;73.266;2022-07-18T02:32:25;9.88;;;4.78;;
59167;SDS011;44948;55.046;73.266;2022-07-18T02:34:07;10.98;;;4.93;;
59167;SDS011;44948;55.046;73.266;2022-07-18T02:35:53;13.93;;;4.60;;
59167;SDS011;44948;55.046;73.266;2022-07-18T02:37:35;6.43;;;4.57;;
59167;SDS011;44948;55.046;73.266;2022-07-18T02:39:19;6.82;;;3.80;;
59167;SDS011;44948;55.046;73.266;2022-07-18T02:41:02;6.15;;;4.07;;
59167;SDS011;44948;55.046;73.266;2022-07-18T02:42:44;8.23;;;4.22;;
59167;SDS011;44948;55.046;73.266;2022-07-18T02:44:27;8.30;;;3.92;;
59167;SDS011;44948;55.046;73.266;2022-07-18T02:46:09;4.68;;;4.15;;
59167;SDS011;44948;55.046;73.266;2022-07-18T02:47:52;5.07;;;3.90;;
59167;SDS011;44948;55.046;73.266;2022-07-18T02:51:17;4.93;;;3.53;;
59167;SDS011;44948;55.046;73.266;2022-07-18T02:52:59;3.95;;;3.40;;
59167;SDS011;44948;55.046;73.266;2022-07-18T02:54:42;8.65;;;3.63;;
59167;SDS011;44948;55.046;73.266;2022-07-18T02:56:25;7.20;;;3.38;;
59167;SDS011;44948;55.046;73.266;2022-07-18T02:58:07;5.85;;;3.70;;
59167;SDS011;44948;55.046;73.266;2022-07-18T02:59:49;6.22;;;3.75;;
59167;SDS011;44948;55.046;73.266;2022-07-18T03:01:32;4.03;;;3.63;;
59167;SDS011;44948;55.046;73.266;2022-07-18T03:03:14;4.95;;;3.97;;
59167;SDS011;44948;55.046;73.266;2022-07-18T03:04:56;5.65;;;3.88;;
59167;SDS011;44948;55.046;73.266;2022-07-18T03:06:39;5.32;;;3.78;;
59167;SDS011;44948;55.046;73.266;2022-07-18T03:08:21;4.22;;;3.38;;
59167;SDS011;44948;55.046;73.266;2022-07-18T03:10:07;5.80;;;3.67;;
59167;SDS011;44948;55.046;73.266;2022-07-18T03:13:32;4.13;;;3.65;;
59167;SDS011;44948;55.046;73.266;2022-07-18T03:15:14;7.72;;;3.75;;
59167;SDS011;44948;55.046;73.266;2022-07-18T03:16:57;4.70;;;3.50;;
59167;SDS011;44948;55.046;73.266;2022-07-18T03:18:39;4.28;;;3.53;;
59167;SDS011;44948;55.046;73.266;2022-07-18T03:20:22;5.47;;;3.00;;
59167;SDS011;44948;55.046;73.266;2022-07-18T03:22:04;5.85;;;3.60;;
59167;SDS011;44948;55.046;73.266;2022-07-18T03:23:47;6.15;;;3.50;;
59167;SDS011;44948;55.046;73.266;2022-07-18T03:25:29;3.83;;;3.40;;
59167;SDS011;44948;55.046;73.266;2022-07-18T03:27:12;4.95;;;3.10;;
59167;SDS011;44948;55.046;73.266;2022-07-18T03:28:54;10.18;;;3.50;;
59167;SDS011;44948;55.046;73.266;2022-07-18T03:30:37;4.32;;;3.45;;
59167;SDS011;44948;55.046;73.266;2022-07-18T03:32:19;3.88;;;3.17;;
59167;SDS011;44948;55.046;73.266;2022-07-18T03:34:04;5.82;;;3.30;;
59167;SDS011;44948;55.046;73.266;2022-07-18T03:35:47;5.37;;;3.50;;
59167;SDS011;44948;55.046;73.266;2022-07-18T03:37:32;5.38;;;3.08;;
59167;SDS011;44948;55.046;73.266;2022-07-18T03:39:15;9.48;;;3.40;;
59167;SDS011;44948;55.046;73.266;2022-07-18T03:40:57;6.50;;;3.13;;
59167;SDS011;44948;55.046;73.266;2022-07-18T03:42:40;4.07;;;2.72;;
59167;SDS011;44948;55.046;73.266;2022-07-18T03:44:22;4.22;;;3.22;;
59167;SDS011;44948;55.046;73.266;2022-07-18T03:46:05;5.60;;;3.30;;
59167;SDS011;44948;55.046;73.266;2022-07-18T03:47:48;4.40;;;3.55;;
59167;SDS011;44948;55.046;73.266;2022-07-18T03:49:30;5.05;;;3.00;;
59167;SDS011;44948;55.046;73.266;2022-07-18T03:51:13;4.00;;;3.10;;
59167;SDS011;44948;55.046;73.266;2022-07-18T03:52:55;5.30;;;2.80;;
59167;SDS011;44948;55.046;73.266;2022-07-18T03:54:37;5.35;;;3.58;;
59167;SDS011;44948;55.046;73.266;2022-07-18T03:56:20;4.95;;;3.25;;
59167;SDS011;44948;55.046;73.266;2022-07-18T03:58:02;6.03;;;3.50;;
59167;SDS011;44948;55.046;73.266;2022-07-18T03:59:45;3.50;;;2.90;;
59167;SDS011;44948;55.046;73.266;2022-07-18T04:01:27;3.25;;;2.95;;
59167;SDS011;44948;55.046;73.266;2022-07-18T04:03:12;6.53;;;3.40;;
59167;SDS011;44948;55.046;73.266;2022-07-18T04:04:54;8.63;;;3.58;;
59167;SDS011;44948;55.046;73.266;2022-07-18T04:06:37;3.90;;;2.50;;
59167;SDS011;44948;55.046;73.266;2022-07-18T04:08:19;3.90;;;2.97;;
59167;SDS011;44948;55.046;73.266;2022-07-18T04:10:02;6.53;;;3.35;;
59167;SDS011;44948;55.046;73.266;2022-07-18T04:11:46;5.50;;;3.90;;
59167;SDS011;44948;55.046;73.266;2022-07-18T04:13:28;2.92;;;2.55;;
59167;SDS011;44948;55.046;73.266;2022-07-18T04:15:10;5.45;;;3.17;;
59167;SDS011;44948;55.046;73.266;2022-07-18T04:16:53;4.88;;;3.30;;
59167;SDS011;44948;55.046;73.266;2022-07-18T04:18:36;8.95;;;2.80;;
59167;SDS011;44948;55.046;73.266;2022-07-18T04:20:18;5.07;;;2.93;;
59167;SDS011;44948;55.046;73.266;2022-07-18T04:22:01;3.53;;;2.47;;
59167;SDS011;44948;55.046;73.266;2022-07-18T04:23:44;5.50;;;2.80;;
59167;SDS011;44948;55.046;73.266;2022-07-18T04:25:27;4.60;;;2.97;;
59167;SDS011;44948;55.046;73.266;2022-07-18T04:27:11;5.60;;;3.05;;
59167;SDS011;44948;55.046;73.266;2022-07-18T04:28:54;6.32;;;3.20;;
59167;SDS011;44948;55.046;73.266;2022-07-18T04:30:37;3.17;;;2.50;;
59167;SDS011;44948;55.046;73.266;2022-07-18T04:32:21;5.65;;;2.83;;
59167;SDS011;44948;55.046;73.266;2022-07-18T04:34:04;4.45;;;2.60;;
59167;SDS011;44948;55.046;73.266;2022-07-18T04:35:47;5.63;;;2.75;;
59167;SDS011;44948;55.046;73.266;2022-07-18T04:37:30;7.10;;;3.53;;
59167;SDS011;44948;55.046;73.266;2022-07-18T04:39:13;4.95;;;2.60;;
59167;SDS011;44948;55.046;73.266;2022-07-18T04:40:55;8.73;;;3.10;;
59167;SDS011;44948;55.046;73.266;2022-07-18T04:42:38;6.10;;;3.35;;
59167;SDS011;44948;55.046;73.266;2022-07-18T04:44:20;4.90;;;2.83;;
59167;SDS011;44948;55.046;73.266;2022-07-18T04:46:03;2.95;;;2.00;;
59167;SDS011;44948;55.046;73.266;2022-07-18T04:47:45;2.83;;;2.40;;
59167;SDS011;44948;55.046;73.266;2022-07-18T04:49:28;3.80;;;2.55;;
59167;SDS011;44948;55.046;73.266;2022-07-18T04:51:10;3.97;;;2.85;;
59167;SDS011;44948;55.046;73.266;2022-07-18T04:52:52;2.88;;;2.40;;
59167;SDS011;44948;55.046;73.266;2022-07-18T04:54:35;5.80;;;3.00;;
59167;SDS011;44948;55.046;73.266;2022-07-18T04:56:18;4.53;;;2.50;;
59167;SDS011;44948;55.046;73.266;2022-07-18T04:58:00;4.60;;;3.15;;
59167;SDS011;44948;55.046;73.266;2022-07-18T04:59:43;5.43;;;3.50;;
59167;SDS011;44948;55.046;73.266;2022-07-18T05:01:27;7.63;;;2.80;;
59167;SDS011;44948;55.046;73.266;2022-07-18T05:03:09;7.43;;;3.25;;
59167;SDS011;44948;55.046;73.266;2022-07-18T05:04:52;5.05;;;2.60;;
59167;SDS011;44948;55.046;73.266;2022-07-18T05:06:34;7.28;;;2.70;;
59167;SDS011;44948;55.046;73.266;2022-07-18T05:08:16;3.20;;;2.40;;
59167;SDS011;44948;55.046;73.266;2022-07-18T05:10:02;5.07;;;2.35;;
59167;SDS011;44948;55.046;73.266;2022-07-18T05:11:48;3.33;;;2.30;;
59167;SDS011;44948;55.046;73.266;2022-07-18T05:13:31;5.10;;;2.40;;
59167;SDS011;44948;55.046;73.266;2022-07-18T05:15:13;7.45;;;3.00;;
59167;SDS011;44948;55.046;73.266;2022-07-18T05:16:57;6.82;;;3.13;;
59167;SDS011;44948;55.046;73.266;2022-07-18T05:18:41;9.60;;;3.55;;
59167;SDS011;44948;55.046;73.266;2022-07-18T05:20:25;12.38;;;2.45;;
59167;SDS011;44948;55.046;73.266;2022-07-18T05:22:08;14.13;;;2.90;;
59167;SDS011;44948;55.046;73.266;2022-07-18T05:23:50;5.20;;;2.85;;
59167;SDS011;44948;55.046;73.266;2022-07-18T05:25:32;8.80;;;3.03;;
59167;SDS011;44948;55.046;73.266;2022-07-18T05:27:15;7.88;;;3.30;;
59167;SDS011;44948;55.046;73.266;2022-07-18T05:28:57;4.13;;;2.00;;
59167;SDS011;44948;55.046;73.266;2022-07-18T05:30:40;4.10;;;2.92;;
59167;SDS011;44948;55.046;73.266;2022-07-18T05:32:22;5.25;;;3.10;;
59167;SDS011;44948;55.046;73.266;2022-07-18T05:34:05;2.65;;;2.28;;
59167;SDS011;44948;55.046;73.266;2022-07-18T05:35:47;7.20;;;2.65;;
59167;SDS011;44948;55.046;73.266;2022-07-18T05:37:30;4.72;;;2.45;;
59167;SDS011;44948;55.046;73.266;2022-07-18T05:39:12;2.85;;;2.33;;
59167;SDS011;44948;55.046;73.266;2022-07-18T05:40:55;5.75;;;3.05;;
59167;SDS011;44948;55.046;73.266;2022-07-18T05:42:37;6.45;;;2.30;;
59167;SDS011;44948;55.046;73.266;2022-07-18T05:46:02;4.47;;;2.03;;
59167;SDS011;44948;55.046;73.266;2022-07-18T05:47:47;12.70;;;5.57;;
59167;SDS011;44948;55.046;73.266;2022-07-18T05:49:29;11.55;;;5.05;;
59167;SDS011;44948;55.046;73.266;2022-07-18T05:51:11;4.50;;;3.08;;
59167;SDS011;44948;55.046;73.266;2022-07-18T05:52:54;4.40;;;2.58;;
59167;SDS011;44948;55.046;73.266;2022-07-18T05:54:36;6.15;;;2.50;;
59167;SDS011;44948;55.046;73.266;2022-07-18T05:56:18;9.02;;;2.38;;
59167;SDS011;44948;55.046;73.266;2022-07-18T05:58:01;6.82;;;4.00;;
59167;SDS011;44948;55.046;73.266;2022-07-18T05:59:43;5.97;;;3.20;;
59167;SDS011;44948;55.046;73.266;2022-07-18T06:01:25;6.43;;;2.20;;
59167;SDS011;44948;55.046;73.266;2022-07-18T06:03:08;3.95;;;2.30;;
59167;SDS011;44948;55.046;73.266;2022-07-18T06:04:50;7.32;;;2.20;;
59167;SDS011;44948;55.046;73.266;2022-07-18T06:06:33;4.13;;;1.90;;
59167;SDS011;44948;55.046;73.266;2022-07-18T06:08:15;8.18;;;2.60;;
59167;SDS011;44948;55.046;73.266;2022-07-18T06:09:58;3.53;;;1.98;;
59167;SDS011;44948;55.046;73.266;2022-07-18T06:11:41;4.57;;;2.00;;
59167;SDS011;44948;55.046;73.266;2022-07-18T06:13:26;5.03;;;2.28;;
59167;SDS011;44948;55.046;73.266;2022-07-18T06:15:08;7.38;;;2.35;;
59167;SDS011;44948;55.046;73.266;2022-07-18T06:16:51;3.38;;;1.80;;
59167;SDS011;44948;55.046;73.266;2022-07-18T06:18:34;2.40;;;1.95;;
59167;SDS011;44948;55.046;73.266;2022-07-18T06:20:16;6.10;;;1.80;;
59167;SDS011;44948;55.046;73.266;2022-07-18T06:22:00;2.20;;;1.65;;
59167;SDS011;44948;55.046;73.266;2022-07-18T06:23:46;3.42;;;2.10;;
59167;SDS011;44948;55.046;73.266;2022-07-18T06:25:28;4.07;;;2.50;;
59167;SDS011;44948;55.046;73.266;2022-07-18T06:27:11;3.40;;;3.03;;
59167;SDS011;44948;55.046;73.266;2022-07-18T06:28:53;4.15;;;1.92;;
59167;SDS011;44948;55.046;73.266;2022-07-18T06:30:35;5.70;;;2.67;;
59167;SDS011;44948;55.046;73.266;2022-07-18T06:32:18;2.40;;;1.63;;
59167;SDS011;44948;55.046;73.266;2022-07-18T06:34:01;2.75;;;1.67;;
59167;SDS011;44948;55.046;73.266;2022-07-18T06:35:43;2.72;;;2.00;;
59167;SDS011;44948;55.046;73.266;2022-07-18T06:37:28;4.88;;;2.05;;
59167;SDS011;44948;55.046;73.266;2022-07-18T06:39:10;2.80;;;1.50;;
59167;SDS011;44948;55.046;73.266;2022-07-18T06:40:53;11.35;;;2.75;;
59167;SDS011;44948;55.046;73.266;2022-07-18T06:42:36;4.15;;;2.03;;
59167;SDS011;44948;55.046;73.266;2022-07-18T06:44:19;3.05;;;1.83;;
59167;SDS011;44948;55.046;73.266;2022-07-18T06:46:03;3.45;;;1.95;;
59167;SDS011;44948;55.046;73.266;2022-07-18T06:47:46;3.90;;;2.08;;
59167;SDS011;44948;55.046;73.266;2022-07-18T06:49:28;3.88;;;1.73;;
59167;SDS011;44948;55.046;73.266;2022-07-18T06:51:11;3.42;;;1.67;;
59167;SDS011;44948;55.046;73.266;2022-07-18T06:52:53;2.88;;;1.67;;
59167;SDS011;44948;55.046;73.266;2022-07-18T06:54:35;4.03;;;1.90;;
59167;SDS011;44948;55.046;73.266;2022-07-18T06:56:21;4.07;;;2.00;;
59167;SDS011;44948;55.046;73.266;2022-07-18T06:58:03;2.20;;;1.73;;
59167;SDS011;44948;55.046;73.266;2022-07-18T06:59:46;2.95;;;1.70;;
59167;SDS011;44948;55.046;73.266;2022-07-18T07:01:28;3.63;;;1.80;;
59167;SDS011;44948;55.046;73.266;2022-07-18T07:03:10;2.97;;;1.80;;
59167;SDS011;44948;55.046;73.266;2022-07-18T07:04:53;3.38;;;1.58;;
59167;SDS011;44948;55.046;73.266;2022-07-18T07:06:35;4.18;;;1.50;;
59167;SDS011;44948;55.046;73.266;2022-07-18T07:08:19;1.67;;;1.45;;
59167;SDS011;44948;55.046;73.266;2022-07-18T07:10:02;1.75;;;1.60;;
59167;SDS011;44948;55.046;73.266;2022-07-18T07:11:45;4.15;;;1.80;;
59167;SDS011;44948;55.046;73.266;2022-07-18T07:13:28;3.85;;;2.05;;
59167;SDS011;44948;55.046;73.266;2022-07-18T07:15:10;5.68;;;2.25;;
59167;SDS011;44948;55.046;73.266;2022-07-18T07:16:53;2.17;;;1.52;;
59167;SDS011;44948;55.046;73.266;2022-07-18T07:18:36;3.08;;;1.77;;
59167;SDS011;44948;55.046;73.266;2022-07-18T07:20:18;7.80;;;1.73;;
59167;SDS011;44948;55.046;73.266;2022-07-18T07:22:02;2.75;;;1.83;;
59167;SDS011;44948;55.046;73.266;2022-07-18T07:23:47;6.82;;;1.83;;
59167;SDS011;44948;55.046;73.266;2022-07-18T07:25:29;5.53;;;1.77;;
59167;SDS011;44948;55.046;73.266;2022-07-18T07:27:12;2.35;;;1.85;;
59167;SDS011;44948;55.046;73.266;2022-07-18T07:28:55;3.13;;;1.85;;
59167;SDS011;44948;55.046;73.266;2022-07-18T07:30:38;7.13;;;2.40;;
59167;SDS011;44948;55.046;73.266;2022-07-18T07:32:20;6.40;;;2.00;;
59167;SDS011;44948;55.046;73.266;2022-07-18T07:34:02;4.53;;;2.10;;
59167;SDS011;44948;55.046;73.266;2022-07-18T07:35:45;4.25;;;2.70;;
59167;SDS011;44948;55.046;73.266;2022-07-18T07:37:28;2.60;;;2.15;;
59167;SDS011;44948;55.046;73.266;2022-07-18T07:39:10;9.30;;;2.97;;
59167;SDS011;44948;55.046;73.266;2022-07-18T07:40:55;9.98;;;2.75;;
59167;SDS011;44948;55.046;73.266;2022-07-18T07:42:38;6.47;;;3.20;;
59167;SDS011;44948;55.046;73.266;2022-07-18T07:44:21;4.82;;;3.60;;
59167;SDS011;44948;55.046;73.266;2022-07-18T07:46:03;4.82;;;3.33;;
59167;SDS011;44948;55.046;73.266;2022-07-18T07:47:45;2.05;;;1.83;;
59167;SDS011;44948;55.046;73.266;2022-07-18T07:49:28;3.80;;;2.00;;
59167;SDS011;44948;55.046;73.266;2022-07-18T07:51:15;6.32;;;2.20;;
59167;SDS011;44948;55.046;73.266;2022-07-18T07:52:58;4.35;;;2.30;;
59167;SDS011;44948;55.046;73.266;2022-07-18T07:54:41;9.30;;;2.22;;
59167;SDS011;44948;55.046;73.266;2022-07-18T07:56:23;7.13;;;1.80;;
59167;SDS011;44948;55.046;73.266;2022-07-18T07:58:05;3.72;;;1.95;;
59167;SDS011;44948;55.046;73.266;2022-07-18T07:59:48;3.90;;;1.80;;
59167;SDS011;44948;55.046;73.266;2022-07-18T08:01:31;5.78;;;2.10;;
59167;SDS011;44948;55.046;73.266;2022-07-18T08:03:13;3.88;;;1.80;;
59167;SDS011;44948;55.046;73.266;2022-07-18T08:04:55;2.55;;;2.00;;
59167;SDS011;44948;55.046;73.266;2022-07-18T08:06:37;7.15;;;2.28;;
59167;SDS011;44948;55.046;73.266;2022-07-18T08:08:20;4.60;;;2.33;;
59167;SDS011;44948;55.046;73.266;2022-07-18T08:10:02;2.63;;;2.10;;
59167;SDS011;44948;55.046;73.266;2022-07-18T08:11:45;2.75;;;1.95;;
59167;SDS011;44948;55.046;73.266;2022-07-18T08:13:27;5.90;;;2.40;;
59167;SDS011;44948;55.046;73.266;2022-07-18T08:15:10;8.60;;;3.33;;
59167;SDS011;44948;55.046;73.266;2022-07-18T08:16:52;7.47;;;2.03;;
59167;SDS011;44948;55.046;73.266;2022-07-18T08:18:35;5.63;;;2.63;;
59167;SDS011;44948;55.046;73.266;2022-07-18T08:20:17;10.82;;;2.63;;
59167;SDS011;44948;55.046;73.266;2022-07-18T08:22:00;5.20;;;2.60;;
59167;SDS011;44948;55.046;73.266;2022-07-18T08:23:42;2.58;;;2.05;;
59167;SDS011;44948;55.046;73.266;2022-07-18T08:25:27;6.70;;;2.70;;
59167;SDS011;44948;55.046;73.266;2022-07-18T08:27:10;7.32;;;2.75;;
59167;SDS011;44948;55.046;73.266;2022-07-18T08:28:53;4.50;;;2.03;;
59167;SDS011;44948;55.046;73.266;2022-07-18T08:32:19;5.53;;;2.25;;
59167;SDS011;44948;55.046;73.266;2022-07-18T08:34:01;2.85;;;2.05;;
59167;SDS011;44948;55.046;73.266;2022-07-18T08:35:44;8.10;;;2.67;;
59167;SDS011;44948;55.046;73.266;2022-07-18T08:37:26;6.45;;;2.10;;
59167;SDS011;44948;55.046;73.266;2022-07-18T08:39:08;6.15;;;2.13;;
59167;SDS011;44948;55.046;73.266;2022-07-18T08:40:52;2.30;;;1.98;;
59167;SDS011;44948;55.046;73.266;2022-07-18T08:42:35;4.05;;;2.25;;
59167;SDS011;44948;55.046;73.266;2022-07-18T08:44:18;5.15;;;2.53;;
59167;SDS011;44948;55.046;73.266;2022-07-18T08:47:46;2.63;;;2.10;;
59167;SDS011;44948;55.046;73.266;2022-07-18T08:51:11;7.32;;;2.70;;
59167;SDS011;44948;55.046;73.266;2022-07-18T08:52:54;11.23;;;2.85;;
59167;SDS011;44948;55.046;73.266;2022-07-18T08:54:37;4.40;;;2.92;;
59167;SDS011;44948;55.046;73.266;2022-07-18T08:58:03;3.80;;;2.75;;
59167;SDS011;44948;55.046;73.266;2022-07-18T08:59:46;5.15;;;3.70;;
59167;SDS011;44948;55.046;73.266;2022-07-18T09:01:28;14.30;;;8.88;;
59167;SDS011;44948;55.046;73.266;2022-07-18T09:03:14;3.63;;;2.70;;
59167;SDS011;44948;55.046;73.266;2022-07-18T09:04:56;3.25;;;2.05;;
59167;SDS011;44948;55.046;73.266;2022-07-18T09:06:46;10.60;;;6.35;;
59167;SDS011;44948;55.046;73.266;2022-07-18T09:08:29;6.72;;;2.53;;
59167;SDS011;44948;55.046;73.266;2022-07-18T09:10:12;5.80;;;2.45;;
59167;SDS011;44948;55.046;73.266;2022-07-18T09:11:56;3.42;;;2.78;;
59167;SDS011;44948;55.046;73.266;2022-07-18T09:13:41;5.68;;;2.40;;
59167;SDS011;44948;55.046;73.266;2022-07-18T09:15:26;5.43;;;2.10;;
59167;SDS011;44948;55.046;73.266;2022-07-18T09:18:52;6.50;;;1.90;;
59167;SDS011;44948;55.046;73.266;2022-07-18T09:20:35;3.20;;;1.90;;
59167;SDS011;44948;55.046;73.266;2022-07-18T09:22:21;6.38;;;2.95;;
59167;SDS011;44948;55.046;73.266;2022-07-18T09:24:05;8.05;;;2.17;;
59167;SDS011;44948;55.046;73.266;2022-07-18T09:25:47;14.32;;;2.20;;
59167;SDS011;44948;55.046;73.266;2022-07-18T09:27:31;3.60;;;2.35;;
59167;SDS011;44948;55.046;73.266;2022-07-18T09:29:16;4.32;;;2.05;;
59167;SDS011;44948;55.046;73.266;2022-07-18T09:30:59;8.07;;;2.45;;
59167;SDS011;44948;55.046;73.266;2022-07-18T09:32:42;4.88;;;2.78;;
59167;SDS011;44948;55.046;73.266;2022-07-18T09:34:33;2.70;;;2.08;;
59167;SDS011;44948;55.046;73.266;2022-07-18T09:36:20;5.50;;;2.40;;
59167;SDS011;44948;55.046;73.266;2022-07-18T09:39:47;5.07;;;1.88;;
59167;SDS011;44948;55.046;73.266;2022-07-18T09:41:29;3.35;;;1.70;;
59167;SDS011;44948;55.046;73.266;2022-07-18T09:43:13;3.33;;;1.83;;
59167;SDS011;44948;55.046;73.266;2022-07-18T09:44:58;6.72;;;1.85;;
59167;SDS011;44948;55.046;73.266;2022-07-18T09:47:00;4.00;;;2.03;;
59167;SDS011;44948;55.046;73.266;2022-07-18T09:48:44;8.27;;;2.38;;
59167;SDS011;44948;55.046;73.266;2022-07-18T09:50:27;5.85;;;2.10;;
59167;SDS011;44948;55.046;73.266;2022-07-18T09:52:12;3.58;;;2.17;;
59167;SDS011;44948;55.046;73.266;2022-07-18T09:53:54;2.88;;;1.83;;
59167;SDS011;44948;55.046;73.266;2022-07-18T09:55:44;2.65;;;2.15;;
59167;SDS011;44948;55.046;73.266;2022-07-18T09:57:39;6.47;;;2.47;;
59167;SDS011;44948;55.046;73.266;2022-07-18T09:59:23;4.70;;;2.10;;
59167;SDS011;44948;55.046;73.266;2022-07-18T10:01:06;10.40;;;2.53;;
59167;SDS011;44948;55.046;73.266;2022-07-18T10:02:51;9.05;;;2.25;;
59167;SDS011;44948;55.046;73.266;2022-07-18T10:04:33;13.57;;;2.13;;
59167;SDS011;44948;55.046;73.266;2022-07-18T10:06:16;6.70;;;1.73;;
59167;SDS011;44948;55.046;73.266;2022-07-18T10:08:00;6.28;;;2.10;;
59167;SDS011;44948;55.046;73.266;2022-07-18T10:09:44;7.75;;;2.40;;
59167;SDS011;44948;55.046;73.266;2022-07-18T10:11:27;3.42;;;1.88;;
59167;SDS011;44948;55.046;73.266;2022-07-18T10:13:09;3.97;;;1.77;;
59167;SDS011;44948;55.046;73.266;2022-07-18T10:16:34;4.05;;;2.50;;
59167;SDS011;44948;55.046;73.266;2022-07-18T10:18:17;9.68;;;5.68;;
59167;SDS011;44948;55.046;73.266;2022-07-18T10:20:05;5.07;;;1.92;;
59167;SDS011;44948;55.046;73.266;2022-07-18T10:21:49;2.30;;;1.88;;
59167;SDS011;44948;55.046;73.266;2022-07-18T10:25:21;10.48;;;6.90;;
59167;SDS011;44948;55.046;73.266;2022-07-18T10:29:32;4.47;;;2.33;;
59167;SDS011;44948;55.046;73.266;2022-07-18T10:31:15;5.53;;;2.30;;
59167;SDS011;44948;55.046;73.266;2022-07-18T10:32:58;6.05;;;1.88;;
59167;SDS011;44948;55.046;73.266;2022-07-18T10:34:41;4.57;;;1.83;;
59167;SDS011;44948;55.046;73.266;2022-07-18T10:36:23;2.20;;;1.65;;
59167;SDS011;44948;55.046;73.266;2022-07-18T10:38:21;2.40;;;1.55;;
59167;SDS011;44948;55.046;73.266;2022-07-18T10:43:51;4.35;;;1.85;;